sensor_id;sensor_type;location;lat;lon;timestamp;pressure;altitude;pressure_sealevel;temperature;humidity
9721;BME280;4899;42.644;23.366;2023-05-15T00:01:33;94261.31;;;11.27;100.00
9721;BME280;4899;42.644;23.366;2023-05-15T00:03:59;94246.94;;;11.26;100.00
9721;BME280;4899;42.644;23.366;2023-05-15T00:06:25;94239.97;;;11.26;100.00
9721;BME280;4899;42.644;23.366;2023-05-15T00:08:52;94246.19;;;11.25;100.00
9721;BME280;4899;42.644;23.366;2023-05-15T00:11:17;94229.72;;;11.18;100.00
9721;BME280;4899;42.644;23.366;2023-05-15T00:13:43;94204.44;;;11.11;100.00
9721;BME280;4899;42.644;23.366;2023-05-15T00:16:08;94235.31;;;11.20;100.00
9721;BME280;4899;42.644;23.366;2023-05-15T00:18:34;94229.28;;;11.07;100.00
9721;BME280;4899;42.644;23.366;2023-05-15T00:21:00;94237.00;;;11.07;100.00
9721;BME280;4899;42.644;23.366;2023-05-15T00:23:26;94255.94;;;11.02;100.00
9721;BME280;4899;42.644;23.366;2023-05-15T00:25:51;94264.59;;;10.98;100.00
9721;BME280;4899;42.644;23.366;2023-05-15T00:28:17;94276.88;;;10.92;100.00
9721;BME280;4899;42.644;23.366;2023-05-15T00:30:42;94208.53;;;10.57;100.00
9721;BME280;4899;42.644;23.366;2023-05-15T00:33:07;94254.94;;;10.86;100.00
9721;BME280;4899;42.644;23.366;2023-05-15T00:35:34;94276.72;;;10.89;100.00
9721;BME280;4899;42.644;23.366;2023-05-15T00:37:59;94269.47;;;10.91;100.00
9721;BME280;4899;42.644;23.366;2023-05-15T00:40:26;94271.28;;;10.82;100.00
9721;BME280;4899;42.644;23.366;2023-05-15T00:42:52;94274.75;;;10.86;100.00
9721;BME280;4899;42.644;23.366;2023-05-15T00:45:18;94259.31;;;10.86;100.00
9721;BME280;4899;42.644;23.366;2023-05-15T00:47:46;94243.16;;;10.76;100.00
9721;BME280;4899;42.644;23.366;2023-05-15T00:50:12;94261.75;;;10.82;100.00
9721;BME280;4899;42.644;23.366;2023-05-15T00:52:38;94247.09;;;10.74;100.00
9721;BME280;4899;42.644;23.366;2023-05-15T00:55:04;94269.34;;;10.78;100.00
9721;BME280;4899;42.644;23.366;2023-05-15T00:57:31;94279.31;;;10.80;100.00
9721;BME280;4899;42.644;23.366;2023-05-15T00:59:58;94278.56;;;10.79;100.00
9721;BME280;4899;42.644;23.366;2023-05-15T01:02:25;94272.53;;;10.75;100.00
9721;BME280;4899;42.644;23.366;2023-05-15T01:04:51;94258.94;;;10.66;100.00
9721;BME280;4899;42.644;23.366;2023-05-15T01:07:16;94257.69;;;10.72;100.00
9721;BME280;4899;42.644;23.366;2023-05-15T01:09:42;94263.47;;;10.69;100.00
9721;BME280;4899;42.644;23.366;2023-05-15T01:12:10;94255.75;;;10.69;100.00
9721;BME280;4899;42.644;23.366;2023-05-15T01:14:37;94278.56;;;10.62;100.00
9721;BME280;4899;42.644;23.366;2023-05-15T01:17:03;94240.31;;;10.61;100.00
9721;BME280;4899;42.644;23.366;2023-05-15T01:19:29;94260.56;;;10.62;100.00
9721;BME280;4899;42.644;23.366;2023-05-15T01:22:22;94244.06;;;10.63;100.00
9721;BME280;4899;42.644;23.366;2023-05-15T01:35:49;94231.38;;;10.58;100.00
9721;BME280;4899;42.644;23.366;2023-05-15T01:38:25;94225.47;;;10.58;100.00
9721;BME280;4899;42.644;23.366;2023-05-15T01:41:00;94243.19;;;10.59;100.00
9721;BME280;4899;42.644;23.366;2023-05-15T01:43:30;94228.84;;;10.50;100.00
9721;BME280;4899;42.644;23.366;2023-05-15T01:45:57;94221.56;;;10.52;100.00
9721;BME280;4899;42.644;23.366;2023-05-15T01:48:24;94215.38;;;10.53;100.00
9721;BME280;4899;42.644;23.366;2023-05-15T01:50:53;94228.84;;;10.50;100.00
9721;BME280;4899;42.644;23.366;2023-05-15T01:53:20;94226.72;;;10.43;100.00
9721;BME280;4899;42.644;23.366;2023-05-15T01:55:45;94220.09;;;10.42;100.00
9721;BME280;4899;42.644;23.366;2023-05-15T01:58:13;94212.66;;;10.40;100.00
9721;BME280;4899;42.644;23.366;2023-05-15T02:00:38;94207.66;;;10.35;100.00
9721;BME280;4899;42.644;23.366;2023-05-15T02:03:05;94206.78;;;10.31;100.00
9721;BME280;4899;42.644;23.366;2023-05-15T02:05:32;94227.94;;;10.37;100.00
9721;BME280;4899;42.644;23.366;2023-05-15T02:08:00;94238.06;;;10.33;100.00
9721;BME280;4899;42.644;23.366;2023-05-15T02:10:27;94225.06;;;10.38;100.00
9721;BME280;4899;42.644;23.366;2023-05-15T02:12:53;94232.00;;;10.38;100.00
9721;BME280;4899;42.644;23.366;2023-05-15T02:15:19;94244.75;;;10.43;100.00
9721;BME280;4899;42.644;23.366;2023-05-15T02:17:46;94235.03;;;10.40;100.00
9721;BME280;4899;42.644;23.366;2023-05-15T02:20:12;94233.69;;;10.42;100.00
9721;BME280;4899;42.644;23.366;2023-05-15T02:22:38;94227.31;;;10.40;100.00
9721;BME280;4899;42.644;23.366;2023-05-15T02:25:04;94229.31;;;10.43;100.00
9721;BME280;4899;42.644;23.366;2023-05-15T02:27:55;94207.06;;;10.47;100.00
9721;BME280;4899;42.644;23.366;2023-05-15T02:30:45;94211.59;;;10.50;100.00
9721;BME280;4899;42.644;23.366;2023-05-15T02:33:51;94204.19;;;10.48;100.00
9721;BME280;4899;42.644;23.366;2023-05-15T02:36:19;94203.13;;;10.50;100.00
9721;BME280;4899;42.644;23.366;2023-05-15T02:38:50;94186.03;;;10.45;100.00
9721;BME280;4899;42.644;23.366;2023-05-15T02:41:17;94195.56;;;10.44;100.00
9721;BME280;4899;42.644;23.366;2023-05-15T02:43:44;94170.34;;;10.29;100.00
9721;BME280;4899;42.644;23.366;2023-05-15T02:46:11;94208.13;;;10.46;100.00
9721;BME280;4899;42.644;23.366;2023-05-15T02:48:39;94209.63;;;10.47;100.00
9721;BME280;4899;42.644;23.366;2023-05-15T02:51:06;94213.56;;;10.36;100.00
9721;BME280;4899;42.644;23.366;2023-05-15T02:53:32;94209.31;;;10.40;100.00
9721;BME280;4899;42.644;23.366;2023-05-15T02:55:58;94208.88;;;10.38;100.00
9721;BME280;4899;42.644;23.366;2023-05-15T02:58:25;94186.78;;;10.37;100.00
9721;BME280;4899;42.644;23.366;2023-05-15T03:00:50;94194.81;;;10.44;100.00
9721;BME280;4899;42.644;23.366;2023-05-15T03:03:15;94176.06;;;10.35;100.00
9721;BME280;4899;42.644;23.366;2023-05-15T03:05:41;94194.22;;;10.30;100.00
9721;BME280;4899;42.644;23.366;2023-05-15T03:08:06;94194.50;;;10.37;100.00
9721;BME280;4899;42.644;23.366;2023-05-15T03:10:32;94201.59;;;10.40;100.00
9721;BME280;4899;42.644;23.366;2023-05-15T03:12:57;94213.28;;;10.29;100.00
9721;BME280;4899;42.644;23.366;2023-05-15T03:15:23;94203.59;;;10.26;100.00
9721;BME280;4899;42.644;23.366;2023-05-15T03:17:48;94221.44;;;10.31;100.00
9721;BME280;4899;42.644;23.366;2023-05-15T03:20:14;94220.69;;;10.30;100.00
9721;BME280;4899;42.644;23.366;2023-05-15T03:22:40;94224.59;;;10.36;100.00
9721;BME280;4899;42.644;23.366;2023-05-15T03:25:09;94222.94;;;10.40;100.00
9721;BME280;4899;42.644;23.366;2023-05-15T03:27:34;94229.59;;;10.33;100.00
9721;BME280;4899;42.644;23.366;2023-05-15T03:30:00;94206.78;;;10.31;100.00
9721;BME280;4899;42.644;23.366;2023-05-15T03:32:26;94220.38;;;10.32;100.00
9721;BME280;4899;42.644;23.366;2023-05-15T03:34:51;94192.69;;;10.46;100.00
9721;BME280;4899;42.644;23.366;2023-05-15T03:37:17;94214.03;;;10.46;100.00
9721;BME280;4899;42.644;23.366;2023-05-15T03:39:42;94204.00;;;10.54;100.00
9721;BME280;4899;42.644;23.366;2023-05-15T03:42:08;94207.97;;;10.51;100.00
9721;BME280;4899;42.644;23.366;2023-05-15T03:44:33;94187.78;;;10.62;100.00
9721;BME280;4899;42.644;23.366;2023-05-15T03:46:59;94189.78;;;10.56;100.00
9721;BME280;4899;42.644;23.366;2023-05-15T03:49:24;94209.00;;;10.67;100.00
9721;BME280;4899;42.644;23.366;2023-05-15T03:51:51;94193.69;;;10.62;100.00
9721;BME280;4899;42.644;23.366;2023-05-15T03:54:16;94188.88;;;10.61;100.00
9721;BME280;4899;42.644;23.366;2023-05-15T03:56:42;94193.38;;;10.64;100.00
9721;BME280;4899;42.644;23.366;2023-05-15T03:59:07;94213.94;;;10.81;100.00
9721;BME280;4899;42.644;23.366;2023-05-15T04:01:32;94207.09;;;10.85;100.00
9721;BME280;4899;42.644;23.366;2023-05-15T04:03:58;94215.53;;;11.03;100.00
9721;BME280;4899;42.644;23.366;2023-05-15T04:06:23;94208.25;;;11.05;100.00
9721;BME280;4899;42.644;23.366;2023-05-15T04:08:49;94207.72;;;10.91;100.00
9721;BME280;4899;42.644;23.366;2023-05-15T04:11:15;94190.91;;;10.93;100.00
9721;BME280;4899;42.644;23.366;2023-05-15T04:13:40;94215.84;;;11.01;100.00
9721;BME280;4899;42.644;23.366;2023-05-15T04:16:06;94210.28;;;10.91;100.00
9721;BME280;4899;42.644;23.366;2023-05-15T04:18:32;94221.28;;;11.00;100.00
9721;BME280;4899;42.644;23.366;2023-05-15T04:20:58;94228.13;;;10.96;100.00
9721;BME280;4899;42.644;23.366;2023-05-15T04:23:24;94221.16;;;10.96;100.00
9721;BME280;4899;42.644;23.366;2023-05-15T04:25:49;94234.94;;;10.92;100.00
9721;BME280;4899;42.644;23.366;2023-05-15T04:28:18;94227.81;;;10.89;100.00
9721;BME280;4899;42.644;23.366;2023-05-15T04:30:45;94216.75;;;10.97;100.00
9721;BME280;4899;42.644;23.366;2023-05-15T04:33:11;94222.50;;;11.02;100.00
9721;BME280;4899;42.644;23.366;2023-05-15T04:35:36;94216.59;;;11.02;100.00
9721;BME280;4899;42.644;23.366;2023-05-15T04:38:02;94224.13;;;11.16;100.00
9721;BME280;4899;42.644;23.366;2023-05-15T04:40:27;94230.16;;;11.20;100.00
9721;BME280;4899;42.644;23.366;2023-05-15T04:42:53;94213.78;;;11.24;100.00
9721;BME280;4899;42.644;23.366;2023-05-15T04:45:19;94201.91;;;11.32;100.00
9721;BME280;4899;42.644;23.366;2023-05-15T04:47:44;94185.72;;;11.31;100.00
9721;BME280;4899;42.644;23.366;2023-05-15T04:50:09;94208.34;;;11.47;100.00
9721;BME280;4899;42.644;23.366;2023-05-15T04:52:35;94185.38;;;11.42;100.00
9721;BME280;4899;42.644;23.366;2023-05-15T04:55:00;94211.63;;;11.56;100.00
9721;BME280;4899;42.644;23.366;2023-05-15T04:57:26;94210.13;;;11.55;100.00
9721;BME280;4899;42.644;23.366;2023-05-15T04:59:52;94208.88;;;11.61;100.00
9721;BME280;4899;42.644;23.366;2023-05-15T05:02:21;94206.56;;;11.68;100.00
9721;BME280;4899;42.644;23.366;2023-05-15T05:04:46;94205.50;;;11.69;100.00
9721;BME280;4899;42.644;23.366;2023-05-15T05:07:12;94208.19;;;11.73;100.00
9721;BME280;4899;42.644;23.366;2023-05-15T05:09:38;94188.22;;;11.69;100.00
9721;BME280;4899;42.644;23.366;2023-05-15T05:12:06;94189.22;;;11.77;100.00
9721;BME280;4899;42.644;23.366;2023-05-15T05:14:32;94180.69;;;11.85;100.00
9721;BME280;4899;42.644;23.366;2023-05-15T05:16:58;94182.16;;;11.95;100.00
9721;BME280;4899;42.644;23.366;2023-05-15T05:19:23;94171.84;;;11.95;100.00
9721;BME280;4899;42.644;23.366;2023-05-15T05:21:49;94191.69;;;12.15;100.00
9721;BME280;4899;42.644;23.366;2023-05-15T05:24:15;94184.50;;;12.21;100.00
9721;BME280;4899;42.644;23.366;2023-05-15T05:26:42;94180.44;;;12.32;100.00
9721;BME280;4899;42.644;23.366;2023-05-15T05:29:08;94175.09;;;12.37;100.00
9721;BME280;4899;42.644;23.366;2023-05-15T05:31:33;94189.22;;;12.52;100.00
9721;BME280;4899;42.644;23.366;2023-05-15T05:33:59;94183.78;;;12.66;100.00
9721;BME280;4899;42.644;23.366;2023-05-15T05:36:24;94186.13;;;12.71;100.00
9721;BME280;4899;42.644;23.366;2023-05-15T05:38:50;94187.97;;;12.82;100.00
9721;BME280;4899;42.644;23.366;2023-05-15T05:41:16;94190.69;;;12.98;100.00
9721;BME280;4899;42.644;23.366;2023-05-15T05:43:41;94186.50;;;13.06;100.00
9721;BME280;4899;42.644;23.366;2023-05-15T05:46:06;94189.41;;;13.16;100.00
9721;BME280;4899;42.644;23.366;2023-05-15T05:48:32;94196.09;;;13.30;100.00
9721;BME280;4899;42.644;23.366;2023-05-15T05:50:57;94203.09;;;13.53;100.00
9721;BME280;4899;42.644;23.366;2023-05-15T05:53:23;94200.81;;;13.64;100.00
9721;BME280;4899;42.644;23.366;2023-05-15T05:55:48;94198.28;;;13.80;100.00
9721;BME280;4899;42.644;23.366;2023-05-15T05:58:14;94192.34;;;13.92;100.00
9721;BME280;4899;42.644;23.366;2023-05-15T06:00:41;94204.81;;;14.02;100.00
9721;BME280;4899;42.644;23.366;2023-05-15T06:03:07;94198.28;;;14.20;100.00
9721;BME280;4899;42.644;23.366;2023-05-15T06:05:32;94203.72;;;14.31;100.00
9721;BME280;4899;42.644;23.366;2023-05-15T06:07:58;94204.38;;;14.40;100.00
9721;BME280;4899;42.644;23.366;2023-05-15T06:10:25;94169.66;;;14.13;100.00
9721;BME280;4899;42.644;23.366;2023-05-15T06:12:50;94202.09;;;14.38;100.00
9721;BME280;4899;42.644;23.366;2023-05-15T06:15:16;94204.16;;;14.45;100.00
9721;BME280;4899;42.644;23.366;2023-05-15T06:17:41;94208.59;;;14.60;100.00
9721;BME280;4899;42.644;23.366;2023-05-15T06:20:07;94206.03;;;14.76;100.00
9721;BME280;4899;42.644;23.366;2023-05-15T06:22:35;94189.06;;;14.78;100.00
9721;BME280;4899;42.644;23.366;2023-05-15T06:25:01;94190.66;;;14.83;100.00
9721;BME280;4899;42.644;23.366;2023-05-15T06:27:27;94186.97;;;14.84;100.00
9721;BME280;4899;42.644;23.366;2023-05-15T06:29:53;94196.09;;;14.78;100.00
9721;BME280;4899;42.644;23.366;2023-05-15T06:32:19;94190.66;;;14.83;100.00
9721;BME280;4899;42.644;23.366;2023-05-15T06:34:44;94196.59;;;14.99;100.00
9721;BME280;4899;42.644;23.366;2023-05-15T06:37:10;94179.97;;;15.00;100.00
9721;BME280;4899;42.644;23.366;2023-05-15T06:39:35;94192.44;;;14.95;100.00
9721;BME280;4899;42.644;23.366;2023-05-15T06:42:01;94196.59;;;14.99;100.00
9721;BME280;4899;42.644;23.366;2023-05-15T06:44:28;94211.97;;;15.24;100.00
9721;BME280;4899;42.644;23.366;2023-05-15T06:46:54;94216.97;;;15.32;100.00
9721;BME280;4899;42.644;23.366;2023-05-15T06:49:19;94207.53;;;15.40;100.00
9721;BME280;4899;42.644;23.366;2023-05-15T06:51:44;94196.31;;;15.36;100.00
9721;BME280;4899;42.644;23.366;2023-05-15T06:54:10;94220.88;;;15.58;100.00
9721;BME280;4899;42.644;23.366;2023-05-15T06:56:35;94207.16;;;15.57;100.00
9721;BME280;4899;42.644;23.366;2023-05-15T06:59:00;94213.41;;;15.88;100.00
9721;BME280;4899;42.644;23.366;2023-05-15T07:01:26;94218.66;;;16.11;100.00
9721;BME280;4899;42.644;23.366;2023-05-15T07:03:51;94215.94;;;16.23;100.00
9721;BME280;4899;42.644;23.366;2023-05-15T07:06:17;94221.59;;;16.48;100.00
9721;BME280;4899;42.644;23.366;2023-05-15T07:08:42;94238.09;;;16.59;100.00
9721;BME280;4899;42.644;23.366;2023-05-15T07:11:07;94218.56;;;16.65;100.00
9721;BME280;4899;42.644;23.366;2023-05-15T07:13:33;94218.81;;;16.79;100.00
9721;BME280;4899;42.644;23.366;2023-05-15T07:15:59;94212.94;;;16.82;100.00
9721;BME280;4899;42.644;23.366;2023-05-15T07:18:24;94221.91;;;16.66;100.00
9721;BME280;4899;42.644;23.366;2023-05-15T07:20:49;94210.38;;;16.63;100.00
9721;BME280;4899;42.644;23.366;2023-05-15T07:23:15;94212.06;;;16.75;100.00
9721;BME280;4899;42.644;23.366;2023-05-15T07:25:40;94204.91;;;16.68;100.00
9721;BME280;4899;42.644;23.366;2023-05-15T07:28:06;94207.91;;;16.70;100.00
9721;BME280;4899;42.644;23.366;2023-05-15T07:30:31;94210.78;;;16.65;100.00
9721;BME280;4899;42.644;23.366;2023-05-15T07:32:57;94214.25;;;16.53;100.00
9721;BME280;4899;42.644;23.366;2023-05-15T07:35:22;94219.00;;;16.48;100.00
9721;BME280;4899;42.644;23.366;2023-05-15T07:37:48;94224.72;;;16.57;100.00
9721;BME280;4899;42.644;23.366;2023-05-15T07:40:13;94222.97;;;16.61;100.00
9721;BME280;4899;42.644;23.366;2023-05-15T07:42:42;94214.22;;;16.50;100.00
9721;BME280;4899;42.644;23.366;2023-05-15T07:45:08;94214.22;;;16.50;100.00
9721;BME280;4899;42.644;23.366;2023-05-15T07:47:33;94183.41;;;16.29;100.00
9721;BME280;4899;42.644;23.366;2023-05-15T07:50:00;94225.41;;;16.54;100.00
9721;BME280;4899;42.644;23.366;2023-05-15T07:52:25;94213.34;;;16.42;100.00
9721;BME280;4899;42.644;23.366;2023-05-15T07:54:50;94210.53;;;16.31;100.00
9721;BME280;4899;42.644;23.366;2023-05-15T07:57:16;94219.06;;;16.32;100.00
9721;BME280;4899;42.644;23.366;2023-05-15T07:59:42;94220.91;;;16.31;100.00
9721;BME280;4899;42.644;23.366;2023-05-15T08:02:07;94231.84;;;16.21;100.00
9721;BME280;4899;42.644;23.366;2023-05-15T08:04:32;94225.28;;;16.08;100.00
9721;BME280;4899;42.644;23.366;2023-05-15T08:06:59;94230.34;;;16.20;100.00
9721;BME280;4899;42.644;23.366;2023-05-15T08:09:24;94232.88;;;16.17;100.00
9721;BME280;4899;42.644;23.366;2023-05-15T08:11:50;94229.53;;;16.16;100.00
9721;BME280;4899;42.644;23.366;2023-05-15T08:14:15;94232.66;;;16.06;100.00
9721;BME280;4899;42.644;23.366;2023-05-15T08:16:41;94249.44;;;15.93;100.00
9721;BME280;4899;42.644;23.366;2023-05-15T08:19:06;94229.88;;;15.80;100.00
9721;BME280;4899;42.644;23.366;2023-05-15T08:21:32;94233.56;;;15.79;100.00
9721;BME280;4899;42.644;23.366;2023-05-15T08:23:58;94232.88;;;15.82;100.00
9721;BME280;4899;42.644;23.366;2023-05-15T08:26:25;94234.91;;;15.88;100.00
9721;BME280;4899;42.644;23.366;2023-05-15T08:28:51;94226.72;;;15.86;100.00
9721;BME280;4899;42.644;23.366;2023-05-15T08:31:16;94230.94;;;15.94;100.00
9721;BME280;4899;42.644;23.366;2023-05-15T08:33:42;94223.03;;;16.07;100.00
9721;BME280;4899;42.644;23.366;2023-05-15T08:36:07;94226.94;;;16.16;100.00
9721;BME280;4899;42.644;23.366;2023-05-15T08:38:33;94227.13;;;16.27;100.00
9721;BME280;4899;42.644;23.366;2023-05-15T08:41:16;94216.88;;;16.34;100.00
9721;BME280;4899;42.644;23.366;2023-05-15T08:43:48;94208.84;;;16.39;100.00
9721;BME280;4899;42.644;23.366;2023-05-15T08:46:14;94217.91;;;16.49;100.00
9721;BME280;4899;42.644;23.366;2023-05-15T08:48:40;94215.72;;;16.51;100.00
9721;BME280;4899;42.644;23.366;2023-05-15T08:51:08;94213.31;;;16.61;100.00
9721;BME280;4899;42.644;23.366;2023-05-15T08:53:35;94215.41;;;16.56;100.00
9721;BME280;4899;42.644;23.366;2023-05-15T08:56:01;94220.50;;;16.49;100.00
9721;BME280;4899;42.644;23.366;2023-05-15T08:58:27;94197.94;;;16.34;100.00
9721;BME280;4899;42.644;23.366;2023-05-15T09:00:53;94198.28;;;16.32;100.00
9721;BME280;4899;42.644;23.366;2023-05-15T09:03:18;94201.38;;;16.38;100.00
9721;BME280;4899;42.644;23.366;2023-05-15T09:05:54;94195.34;;;16.34;100.00
9721;BME280;4899;42.644;23.366;2023-05-15T09:08:21;94199.03;;;16.33;100.00
9721;BME280;4899;42.644;23.366;2023-05-15T09:10:48;94197.47;;;16.28;100.00
9721;BME280;4899;42.644;23.366;2023-05-15T09:13:14;94215.47;;;16.37;100.00
9721;BME280;4899;42.644;23.366;2023-05-15T09:15:39;94208.75;;;16.36;100.00
9721;BME280;4899;42.644;23.366;2023-05-15T09:18:05;94200.47;;;16.49;100.00
9721;BME280;4899;42.644;23.366;2023-05-15T09:20:34;94195.13;;;16.61;100.00
9721;BME280;4899;42.644;23.366;2023-05-15T09:23:02;94180.72;;;16.64;100.00
9721;BME280;4899;42.644;23.366;2023-05-15T09:28:01;94195.22;;;17.11;100.00
9721;BME280;4899;42.644;23.366;2023-05-15T09:30:27;94183.75;;;17.38;100.00
9721;BME280;4899;42.644;23.366;2023-05-15T09:32:57;94176.63;;;17.62;100.00
9721;BME280;4899;42.644;23.366;2023-05-15T09:35:33;94179.44;;;17.76;100.00
9721;BME280;4899;42.644;23.366;2023-05-15T09:38:00;94188.22;;;17.94;100.00
9721;BME280;4899;42.644;23.366;2023-05-15T09:40:30;94184.56;;;17.99;100.00
9721;BME280;4899;42.644;23.366;2023-05-15T09:42:56;94179.53;;;18.13;100.00
9721;BME280;4899;42.644;23.366;2023-05-15T09:45:22;94169.91;;;18.17;100.00
9721;BME280;4899;42.644;23.366;2023-05-15T09:47:50;94167.69;;;18.19;100.00
9721;BME280;4899;42.644;23.366;2023-05-15T09:50:32;94141.84;;;18.03;100.00
9721;BME280;4899;42.644;23.366;2023-05-15T09:52:59;94141.44;;;18.01;100.00
9721;BME280;4899;42.644;23.366;2023-05-15T09:55:24;94143.66;;;17.99;100.00
9721;BME280;4899;42.644;23.366;2023-05-15T09:58:21;94148.50;;;18.01;100.00
9721;BME280;4899;42.644;23.366;2023-05-15T10:00:47;94155.28;;;18.09;100.00
9721;BME280;4899;42.644;23.366;2023-05-15T10:03:13;94146.66;;;18.01;100.00
9721;BME280;4899;42.644;23.366;2023-05-15T10:05:39;94146.44;;;18.13;100.00
9721;BME280;4899;42.644;23.366;2023-05-15T10:08:05;94147.09;;;18.07;100.00
9721;BME280;4899;42.644;23.366;2023-05-15T10:10:31;94142.22;;;18.05;100.00
9721;BME280;4899;42.644;23.366;2023-05-15T10:12:59;94136.31;;;18.08;100.00
9721;BME280;4899;42.644;23.366;2023-05-15T10:15:27;94146.66;;;18.01;100.00
9721;BME280;4899;42.644;23.366;2023-05-15T10:17:54;94151.81;;;17.98;100.00
9721;BME280;4899;42.644;23.366;2023-05-15T10:20:22;94141.44;;;18.01;100.00
9721;BME280;4899;42.644;23.366;2023-05-15T10:22:50;94147.44;;;18.05;100.00
9721;BME280;4899;42.644;23.366;2023-05-15T10:25:41;94160.94;;;18.14;100.00
9721;BME280;4899;42.644;23.366;2023-05-15T10:28:10;94160.97;;;18.18;100.00
9721;BME280;4899;42.644;23.366;2023-05-15T10:30:37;94173.75;;;18.30;100.00
9721;BME280;4899;42.644;23.366;2023-05-15T10:33:06;94177.84;;;18.31;100.00
9721;BME280;4899;42.644;23.366;2023-05-15T10:35:33;94163.97;;;18.20;100.00
9721;BME280;4899;42.644;23.366;2023-05-15T10:38:02;94176.56;;;18.14;100.00
9721;BME280;4899;42.644;23.366;2023-05-15T10:40:29;94183.09;;;18.01;100.00
9721;BME280;4899;42.644;23.366;2023-05-15T10:42:58;94179.31;;;17.95;100.00
9721;BME280;4899;42.644;23.366;2023-05-15T10:45:25;94181.38;;;18.12;100.00
9721;BME280;4899;42.644;23.366;2023-05-15T10:47:51;94186.19;;;18.10;100.00
9721;BME280;4899;42.644;23.366;2023-05-15T10:50:17;94172.00;;;18.08;100.00
9721;BME280;4899;42.644;23.366;2023-05-15T10:52:42;94186.19;;;18.10;100.00
9721;BME280;4899;42.644;23.366;2023-05-15T10:55:12;94173.69;;;17.90;100.00
9721;BME280;4899;42.644;23.366;2023-05-15T10:57:38;94173.94;;;17.81;100.00
9721;BME280;4899;42.644;23.366;2023-05-15T11:00:23;94177.31;;;17.59;100.00
9721;BME280;4899;42.644;23.366;2023-05-15T11:02:49;94184.72;;;17.57;100.00
9721;BME280;4899;42.644;23.366;2023-05-15T11:05:18;94170.75;;;17.38;100.00
9721;BME280;4899;42.644;23.366;2023-05-15T11:07:45;94167.13;;;17.46;100.00
9721;BME280;4899;42.644;23.366;2023-05-15T11:12:55;94162.13;;;17.34;100.00
9721;BME280;4899;42.644;23.366;2023-05-15T11:15:22;94170.34;;;17.36;100.00
9721;BME280;4899;42.644;23.366;2023-05-15T11:18:06;94171.09;;;17.37;100.00
9721;BME280;4899;42.644;23.366;2023-05-15T11:23:20;94160.56;;;17.56;100.00
9721;BME280;4899;42.644;23.366;2023-05-15T11:25:52;94138.22;;;17.51;100.00
9721;BME280;4899;42.644;23.366;2023-05-15T11:28:27;94159.78;;;17.78;100.00
9721;BME280;4899;42.644;23.366;2023-05-15T11:30:58;94171.22;;;18.04;100.00
9721;BME280;4899;42.644;23.366;2023-05-15T11:33:28;94169.88;;;18.13;100.00
9721;BME280;4899;42.644;23.366;2023-05-15T11:35:58;94177.44;;;18.26;100.00
9721;BME280;4899;42.644;23.366;2023-05-15T11:38:24;94161.59;;;18.41;100.00
9721;BME280;4899;42.644;23.366;2023-05-15T11:40:54;94160.94;;;18.52;100.00
9721;BME280;4899;42.644;23.366;2023-05-15T11:45:56;94144.22;;;18.97;100.00
9721;BME280;4899;42.644;23.366;2023-05-15T11:48:24;94136.47;;;19.04;100.00
9721;BME280;4899;42.644;23.366;2023-05-15T11:50:50;94118.34;;;19.25;100.00
9721;BME280;4899;42.644;23.366;2023-05-15T11:53:19;94140.06;;;19.44;100.00
9721;BME280;4899;42.644;23.366;2023-05-15T11:55:45;94143.41;;;19.41;100.00
9721;BME280;4899;42.644;23.366;2023-05-15T11:58:15;94140.84;;;19.51;100.00
9721;BME280;4899;42.644;23.366;2023-05-15T12:00:45;94139.13;;;19.70;100.00
9721;BME280;4899;42.644;23.366;2023-05-15T12:03:36;94138.41;;;19.80;100.00
9721;BME280;4899;42.644;23.366;2023-05-15T12:06:02;94127.28;;;19.93;100.00
9721;BME280;4899;42.644;23.366;2023-05-15T12:08:35;94131.41;;;20.02;100.00
9721;BME280;4899;42.644;23.366;2023-05-15T12:11:04;94132.91;;;20.03;100.00
9721;BME280;4899;42.644;23.366;2023-05-15T12:13:31;94136.25;;;20.00;100.00
9721;BME280;4899;42.644;23.366;2023-05-15T12:15:57;94122.38;;;19.81;100.00
9721;BME280;4899;42.644;23.366;2023-05-15T12:18:23;94113.06;;;19.80;100.00
9721;BME280;4899;42.644;23.366;2023-05-15T12:20:51;94128.75;;;19.87;100.00
9721;BME280;4899;42.644;23.366;2023-05-15T12:23:17;94130.22;;;19.81;100.00
9721;BME280;4899;42.644;23.366;2023-05-15T12:25:46;94114.91;;;19.76;100.00
9721;BME280;4899;42.644;23.366;2023-05-15T12:28:13;94104.84;;;19.78;100.00
9721;BME280;4899;42.644;23.366;2023-05-15T12:30:40;94087.63;;;19.59;100.00
9721;BME280;4899;42.644;23.366;2023-05-15T12:33:07;94085.81;;;19.78;100.00
9721;BME280;4899;42.644;23.366;2023-05-15T12:35:42;94084.00;;;19.92;100.00
9721;BME280;4899;42.644;23.366;2023-05-15T12:38:13;94079.16;;;19.94;100.00
9721;BME280;4899;42.644;23.366;2023-05-15T12:40:40;94066.13;;;20.02;100.00
9721;BME280;4899;42.644;23.366;2023-05-15T12:43:06;94057.97;;;20.35;100.00
9721;BME280;4899;42.644;23.366;2023-05-15T12:45:32;94056.13;;;20.78;100.00
9721;BME280;4899;42.644;23.366;2023-05-15T12:48:00;94053.13;;;20.98;97.93
9721;BME280;4899;42.644;23.366;2023-05-15T12:50:25;94052.72;;;21.13;99.25
9721;BME280;4899;42.644;23.366;2023-05-15T12:53:01;94048.25;;;21.10;91.14
9721;BME280;4899;42.644;23.366;2023-05-15T12:55:34;94040.75;;;21.12;93.46
9721;BME280;4899;42.644;23.366;2023-05-15T12:58:06;94058.69;;;21.14;92.96
9721;BME280;4899;42.644;23.366;2023-05-15T13:00:36;94065.41;;;21.36;94.47
9721;BME280;4899;42.644;23.366;2023-05-15T13:03:03;94066.81;;;21.59;90.89
9721;BME280;4899;42.644;23.366;2023-05-15T13:05:33;94067.56;;;21.59;85.26
9721;BME280;4899;42.644;23.366;2023-05-15T13:07:59;94073.53;;;21.56;87.36
9721;BME280;4899;42.644;23.366;2023-05-15T13:10:27;94061.91;;;21.71;86.58
9721;BME280;4899;42.644;23.366;2023-05-15T13:12:56;94057.78;;;21.74;84.68
9721;BME280;4899;42.644;23.366;2023-05-15T13:18:06;94056.34;;;21.62;75.99
9721;BME280;4899;42.644;23.366;2023-05-15T13:20:39;94047.31;;;21.70;78.61
9721;BME280;4899;42.644;23.366;2023-05-15T13:23:05;94040.59;;;21.69;82.96
9721;BME280;4899;42.644;23.366;2023-05-15T13:25:32;94043.88;;;21.88;80.93